sensor_id;sensor_type;location;lat;lon;timestamp;P1;durP1;ratioP1;P2;durP2;ratioP2
13660;SDS011;6903;49.480;11.102;2023-11-19T00:00:59;2.93;;;2.30;;
13660;SDS011;6903;49.480;11.102;2023-11-19T00:03:25;2.83;;;2.10;;
13660;SDS011;6903;49.480;11.102;2023-11-19T00:05:50;3.30;;;2.43;;
13660;SDS011;6903;49.480;11.102;2023-11-19T00:08:16;3.53;;;1.80;;
13660;SDS011;6903;49.480;11.102;2023-11-19T00:10:41;3.63;;;2.80;;
13660;SDS011;6903;49.480;11.102;2023-11-19T00:13:06;2.83;;;2.53;;
13660;SDS011;6903;49.480;11.102;2023-11-19T00:15:32;3.93;;;2.80;;
13660;SDS011;6903;49.480;11.102;2023-11-19T00:17:57;3.63;;;2.43;;
13660;SDS011;6903;49.480;11.102;2023-11-19T00:20:22;4.63;;;2.80;;
13660;SDS011;6903;49.480;11.102;2023-11-19T00:22:48;3.10;;;2.80;;
13660;SDS011;6903;49.480;11.102;2023-11-19T00:25:16;4.83;;;2.83;;
13660;SDS011;6903;49.480;11.102;2023-11-19T00:27:41;3.33;;;2.20;;
13660;SDS011;6903;49.480;11.102;2023-11-19T00:30:09;3.97;;;2.63;;
13660;SDS011;6903;49.480;11.102;2023-11-19T00:32:35;2.67;;;2.27;;
13660;SDS011;6903;49.480;11.102;2023-11-19T00:35:03;3.13;;;2.40;;
13660;SDS011;6903;49.480;11.102;2023-11-19T00:37:29;3.90;;;2.70;;
13660;SDS011;6903;49.480;11.102;2023-11-19T00:39:54;3.47;;;2.63;;
13660;SDS011;6903;49.480;11.102;2023-11-19T00:42:21;4.10;;;2.53;;
13660;SDS011;6903;49.480;11.102;2023-11-19T00:44:47;3.70;;;2.53;;
13660;SDS011;6903;49.480;11.102;2023-11-19T00:47:12;3.93;;;3.10;;
13660;SDS011;6903;49.480;11.102;2023-11-19T00:49:37;4.23;;;2.10;;
13660;SDS011;6903;49.480;11.102;2023-11-19T00:52:03;4.40;;;3.03;;
13660;SDS011;6903;49.480;11.102;2023-11-19T00:54:28;5.60;;;2.80;;
13660;SDS011;6903;49.480;11.102;2023-11-19T00:56:54;3.83;;;2.63;;
13660;SDS011;6903;49.480;11.102;2023-11-19T00:59:20;3.20;;;2.80;;
13660;SDS011;6903;49.480;11.102;2023-11-19T01:01:45;3.93;;;2.70;;
13660;SDS011;6903;49.480;11.102;2023-11-19T01:04:13;4.20;;;2.90;;
13660;SDS011;6903;49.480;11.102;2023-11-19T01:06:38;2.67;;;2.40;;
13660;SDS011;6903;49.480;11.102;2023-11-19T01:09:04;4.17;;;2.53;;
13660;SDS011;6903;49.480;11.102;2023-11-19T01:11:29;3.23;;;2.50;;
13660;SDS011;6903;49.480;11.102;2023-11-19T01:13:54;4.17;;;2.27;;
13660;SDS011;6903;49.480;11.102;2023-11-19T01:16:20;3.40;;;2.67;;
13660;SDS011;6903;49.480;11.102;2023-11-19T01:18:49;4.07;;;2.40;;
13660;SDS011;6903;49.480;11.102;2023-11-19T01:21:14;3.47;;;2.60;;
13660;SDS011;6903;49.480;11.102;2023-11-19T01:23:40;3.57;;;2.90;;
13660;SDS011;6903;49.480;11.102;2023-11-19T01:26:08;4.53;;;2.97;;
13660;SDS011;6903;49.480;11.102;2023-11-19T01:28:35;3.50;;;2.67;;
13660;SDS011;6903;49.480;11.102;2023-11-19T01:31:00;3.87;;;2.90;;
13660;SDS011;6903;49.480;11.102;2023-11-19T01:33:26;3.43;;;2.83;;
13660;SDS011;6903;49.480;11.102;2023-11-19T01:35:51;3.40;;;2.47;;
13660;SDS011;6903;49.480;11.102;2023-11-19T01:38:17;3.60;;;2.50;;
13660;SDS011;6903;49.480;11.102;2023-11-19T01:40:42;5.43;;;2.73;;
13660;SDS011;6903;49.480;11.102;2023-11-19T01:43:07;4.27;;;3.13;;
13660;SDS011;6903;49.480;11.102;2023-11-19T01:45:36;3.20;;;2.40;;
13660;SDS011;6903;49.480;11.102;2023-11-19T01:48:03;3.67;;;2.77;;
13660;SDS011;6903;49.480;11.102;2023-11-19T01:50:29;3.27;;;2.73;;
13660;SDS011;6903;49.480;11.102;2023-11-19T01:52:55;3.43;;;2.83;;
13660;SDS011;6903;49.480;11.102;2023-11-19T01:55:22;4.50;;;3.07;;
13660;SDS011;6903;49.480;11.102;2023-11-19T01:57:49;5.20;;;3.00;;
13660;SDS011;6903;49.480;11.102;2023-11-19T02:00:16;3.17;;;2.50;;
13660;SDS011;6903;49.480;11.102;2023-11-19T02:02:42;4.10;;;2.80;;
13660;SDS011;6903;49.480;11.102;2023-11-19T02:05:08;3.30;;;2.73;;
13660;SDS011;6903;49.480;11.102;2023-11-19T02:07:34;3.87;;;2.63;;
13660;SDS011;6903;49.480;11.102;2023-11-19T02:09:59;3.53;;;2.80;;
13660;SDS011;6903;49.480;11.102;2023-11-19T02:12:27;4.30;;;2.93;;
13660;SDS011;6903;49.480;11.102;2023-11-19T02:14:58;3.13;;;2.63;;
13660;SDS011;6903;49.480;11.102;2023-11-19T02:17:24;4.60;;;2.77;;
13660;SDS011;6903;49.480;11.102;2023-11-19T02:19:53;3.60;;;2.80;;
13660;SDS011;6903;49.480;11.102;2023-11-19T02:22:18;4.70;;;3.00;;
13660;SDS011;6903;49.480;11.102;2023-11-19T02:24:44;4.50;;;3.00;;
13660;SDS011;6903;49.480;11.102;2023-11-19T02:27:14;4.97;;;3.30;;
13660;SDS011;6903;49.480;11.102;2023-11-19T02:29:45;3.97;;;2.90;;
13660;SDS011;6903;49.480;11.102;2023-11-19T02:32:10;3.97;;;3.10;;
13660;SDS011;6903;49.480;11.102;2023-11-19T02:34:38;5.17;;;2.80;;
13660;SDS011;6903;49.480;11.102;2023-11-19T02:37:03;4.50;;;3.13;;
13660;SDS011;6903;49.480;11.102;2023-11-19T02:39:30;3.90;;;3.27;;
13660;SDS011;6903;49.480;11.102;2023-11-19T02:41:56;4.30;;;2.90;;
13660;SDS011;6903;49.480;11.102;2023-11-19T02:44:21;4.50;;;3.13;;
13660;SDS011;6903;49.480;11.102;2023-11-19T02:46:47;6.37;;;3.33;;
13660;SDS011;6903;49.480;11.102;2023-11-19T02:49:13;4.13;;;3.17;;
13660;SDS011;6903;49.480;11.102;2023-11-19T02:51:39;4.00;;;2.90;;
13660;SDS011;6903;49.480;11.102;2023-11-19T02:54:04;5.27;;;3.43;;
13660;SDS011;6903;49.480;11.102;2023-11-19T02:56:30;5.13;;;3.57;;
13660;SDS011;6903;49.480;11.102;2023-11-19T02:58:59;3.97;;;3.10;;
13660;SDS011;6903;49.480;11.102;2023-11-19T03:01:28;4.83;;;3.27;;
13660;SDS011;6903;49.480;11.102;2023-11-19T03:03:58;4.83;;;3.00;;
13660;SDS011;6903;49.480;11.102;2023-11-19T03:06:26;3.57;;;2.77;;
13660;SDS011;6903;49.480;11.102;2023-11-19T03:08:52;4.40;;;3.20;;
13660;SDS011;6903;49.480;11.102;2023-11-19T03:11:18;6.43;;;3.73;;
13660;SDS011;6903;49.480;11.102;2023-11-19T03:13:43;4.07;;;2.83;;
13660;SDS011;6903;49.480;11.102;2023-11-19T03:16:08;4.73;;;3.37;;
13660;SDS011;6903;49.480;11.102;2023-11-19T03:18:34;6.10;;;3.73;;
13660;SDS011;6903;49.480;11.102;2023-11-19T03:21:00;4.60;;;2.97;;
13660;SDS011;6903;49.480;11.102;2023-11-19T03:23:25;4.33;;;3.07;;
13660;SDS011;6903;49.480;11.102;2023-11-19T03:25:52;5.00;;;3.33;;
13660;SDS011;6903;49.480;11.102;2023-11-19T03:28:18;4.50;;;3.23;;
13660;SDS011;6903;49.480;11.102;2023-11-19T03:30:43;4.53;;;3.40;;
13660;SDS011;6903;49.480;11.102;2023-11-19T03:33:08;5.43;;;3.87;;
13660;SDS011;6903;49.480;11.102;2023-11-19T03:35:34;5.27;;;3.33;;
13660;SDS011;6903;49.480;11.102;2023-11-19T03:37:59;5.93;;;3.67;;
13660;SDS011;6903;49.480;11.102;2023-11-19T03:40:26;4.77;;;3.40;;
13660;SDS011;6903;49.480;11.102;2023-11-19T03:42:51;5.67;;;3.40;;
13660;SDS011;6903;49.480;11.102;2023-11-19T03:45:16;4.73;;;3.43;;
13660;SDS011;6903;49.480;11.102;2023-11-19T03:47:42;6.00;;;3.70;;
13660;SDS011;6903;49.480;11.102;2023-11-19T03:50:07;5.57;;;3.80;;
13660;SDS011;6903;49.480;11.102;2023-11-19T03:52:33;5.30;;;3.60;;
13660;SDS011;6903;49.480;11.102;2023-11-19T03:54:59;5.07;;;3.27;;
13660;SDS011;6903;49.480;11.102;2023-11-19T03:57:24;6.17;;;3.50;;
13660;SDS011;6903;49.480;11.102;2023-11-19T03:59:49;5.00;;;3.47;;
13660;SDS011;6903;49.480;11.102;2023-11-19T04:02:15;5.53;;;3.77;;
13660;SDS011;6903;49.480;11.102;2023-11-19T04:04:41;6.07;;;4.10;;
13660;SDS011;6903;49.480;11.102;2023-11-19T04:07:06;6.50;;;4.13;;
13660;SDS011;6903;49.480;11.102;2023-11-19T04:09:32;6.47;;;4.33;;
13660;SDS011;6903;49.480;11.102;2023-11-19T04:12:02;8.17;;;4.40;;
13660;SDS011;6903;49.480;11.102;2023-11-19T04:14:28;6.43;;;4.47;;
13660;SDS011;6903;49.480;11.102;2023-11-19T04:16:53;6.80;;;4.30;;
13660;SDS011;6903;49.480;11.102;2023-11-19T04:19:19;8.20;;;4.83;;
13660;SDS011;6903;49.480;11.102;2023-11-19T04:21:44;7.73;;;5.03;;
13660;SDS011;6903;49.480;11.102;2023-11-19T04:24:10;6.50;;;4.50;;
13660;SDS011;6903;49.480;11.102;2023-11-19T04:26:42;5.27;;;4.17;;
13660;SDS011;6903;49.480;11.102;2023-11-19T04:29:10;7.77;;;5.00;;
13660;SDS011;6903;49.480;11.102;2023-11-19T04:31:37;6.83;;;4.47;;
13660;SDS011;6903;49.480;11.102;2023-11-19T04:34:02;8.20;;;4.60;;
13660;SDS011;6903;49.480;11.102;2023-11-19T04:36:27;6.10;;;4.40;;
13660;SDS011;6903;49.480;11.102;2023-11-19T04:38:54;8.13;;;5.27;;
13660;SDS011;6903;49.480;11.102;2023-11-19T04:41:20;7.27;;;4.50;;
13660;SDS011;6903;49.480;11.102;2023-11-19T04:43:45;7.50;;;5.13;;
13660;SDS011;6903;49.480;11.102;2023-11-19T04:46:10;8.67;;;5.40;;
13660;SDS011;6903;49.480;11.102;2023-11-19T04:48:36;8.73;;;5.23;;
13660;SDS011;6903;49.480;11.102;2023-11-19T04:51:04;6.50;;;4.90;;
13660;SDS011;6903;49.480;11.102;2023-11-19T04:53:30;7.80;;;4.87;;
13660;SDS011;6903;49.480;11.102;2023-11-19T04:55:55;9.63;;;5.77;;
13660;SDS011;6903;49.480;11.102;2023-11-19T04:58:21;9.67;;;5.47;;
13660;SDS011;6903;49.480;11.102;2023-11-19T05:00:46;8.43;;;5.17;;
13660;SDS011;6903;49.480;11.102;2023-11-19T05:03:11;8.30;;;5.10;;
13660;SDS011;6903;49.480;11.102;2023-11-19T05:05:36;9.77;;;4.97;;
13660;SDS011;6903;49.480;11.102;2023-11-19T05:08:02;7.77;;;5.30;;
13660;SDS011;6903;49.480;11.102;2023-11-19T05:10:27;10.17;;;5.70;;
13660;SDS011;6903;49.480;11.102;2023-11-19T05:12:53;7.97;;;5.30;;
13660;SDS011;6903;49.480;11.102;2023-11-19T05:15:18;9.20;;;5.27;;
13660;SDS011;6903;49.480;11.102;2023-11-19T05:17:43;7.43;;;4.97;;
13660;SDS011;6903;49.480;11.102;2023-11-19T05:20:09;9.30;;;5.73;;
13660;SDS011;6903;49.480;11.102;2023-11-19T05:22:39;8.43;;;5.57;;
13660;SDS011;6903;49.480;11.102;2023-11-19T05:25:05;7.33;;;4.97;;
13660;SDS011;6903;49.480;11.102;2023-11-19T05:27:31;7.70;;;4.93;;
13660;SDS011;6903;49.480;11.102;2023-11-19T05:29:56;8.17;;;5.10;;
13660;SDS011;6903;49.480;11.102;2023-11-19T05:32:21;11.10;;;5.60;;
13660;SDS011;6903;49.480;11.102;2023-11-19T05:34:47;7.93;;;5.27;;
13660;SDS011;6903;49.480;11.102;2023-11-19T05:37:12;8.57;;;5.43;;
13660;SDS011;6903;49.480;11.102;2023-11-19T05:39:37;8.40;;;5.10;;
13660;SDS011;6903;49.480;11.102;2023-11-19T05:42:03;8.20;;;5.17;;
13660;SDS011;6903;49.480;11.102;2023-11-19T05:44:28;9.77;;;5.40;;
13660;SDS011;6903;49.480;11.102;2023-11-19T05:46:54;8.07;;;5.03;;
13660;SDS011;6903;49.480;11.102;2023-11-19T05:49:19;8.57;;;5.07;;
13660;SDS011;6903;49.480;11.102;2023-11-19T05:51:44;8.90;;;5.60;;
13660;SDS011;6903;49.480;11.102;2023-11-19T05:54:11;6.97;;;4.53;;
13660;SDS011;6903;49.480;11.102;2023-11-19T05:56:36;8.00;;;5.20;;
13660;SDS011;6903;49.480;11.102;2023-11-19T05:59:02;7.43;;;4.93;;
13660;SDS011;6903;49.480;11.102;2023-11-19T06:01:32;8.27;;;4.77;;
13660;SDS011;6903;49.480;11.102;2023-11-19T06:03:58;8.73;;;5.20;;
13660;SDS011;6903;49.480;11.102;2023-11-19T06:06:25;9.03;;;4.97;;
13660;SDS011;6903;49.480;11.102;2023-11-19T06:08:51;7.70;;;5.03;;
13660;SDS011;6903;49.480;11.102;2023-11-19T06:11:16;9.93;;;4.93;;
13660;SDS011;6903;49.480;11.102;2023-11-19T06:13:44;13.70;;;5.37;;
13660;SDS011;6903;49.480;11.102;2023-11-19T06:16:10;8.80;;;5.50;;
13660;SDS011;6903;49.480;11.102;2023-11-19T06:18:38;7.63;;;4.73;;
13660;SDS011;6903;49.480;11.102;2023-11-19T06:21:04;8.77;;;5.00;;
13660;SDS011;6903;49.480;11.102;2023-11-19T06:23:29;8.80;;;5.20;;
13660;SDS011;6903;49.480;11.102;2023-11-19T06:25:55;7.30;;;5.07;;
13660;SDS011;6903;49.480;11.102;2023-11-19T06:28:20;9.47;;;5.00;;
13660;SDS011;6903;49.480;11.102;2023-11-19T06:30:45;7.70;;;4.67;;
13660;SDS011;6903;49.480;11.102;2023-11-19T06:33:14;8.20;;;5.27;;
13660;SDS011;6903;49.480;11.102;2023-11-19T06:35:39;7.80;;;4.93;;
13660;SDS011;6903;49.480;11.102;2023-11-19T06:38:04;6.90;;;4.63;;
13660;SDS011;6903;49.480;11.102;2023-11-19T06:40:30;6.40;;;4.47;;
13660;SDS011;6903;49.480;11.102;2023-11-19T06:42:56;7.50;;;4.63;;
13660;SDS011;6903;49.480;11.102;2023-11-19T06:45:22;7.67;;;4.53;;
13660;SDS011;6903;49.480;11.102;2023-11-19T06:47:47;6.47;;;5.00;;
13660;SDS011;6903;49.480;11.102;2023-11-19T06:50:12;8.60;;;5.07;;
13660;SDS011;6903;49.480;11.102;2023-11-19T06:52:38;7.33;;;4.27;;
13660;SDS011;6903;49.480;11.102;2023-11-19T06:55:03;9.03;;;4.97;;
13660;SDS011;6903;49.480;11.102;2023-11-19T06:57:29;7.07;;;5.03;;
13660;SDS011;6903;49.480;11.102;2023-11-19T06:59:57;6.70;;;4.40;;
13660;SDS011;6903;49.480;11.102;2023-11-19T07:02:23;8.70;;;4.67;;
13660;SDS011;6903;49.480;11.102;2023-11-19T07:04:48;5.93;;;3.97;;
13660;SDS011;6903;49.480;11.102;2023-11-19T07:07:14;7.40;;;4.47;;
13660;SDS011;6903;49.480;11.102;2023-11-19T07:09:40;5.97;;;3.80;;
13660;SDS011;6903;49.480;11.102;2023-11-19T07:12:05;6.57;;;4.17;;
13660;SDS011;6903;49.480;11.102;2023-11-19T07:14:31;8.40;;;4.73;;
13660;SDS011;6903;49.480;11.102;2023-11-19T07:16:56;8.13;;;4.27;;
13660;SDS011;6903;49.480;11.102;2023-11-19T07:19:22;8.07;;;4.87;;
13660;SDS011;6903;49.480;11.102;2023-11-19T07:21:47;8.67;;;4.63;;
13660;SDS011;6903;49.480;11.102;2023-11-19T07:24:12;8.07;;;4.33;;
13660;SDS011;6903;49.480;11.102;2023-11-19T07:26:42;6.67;;;3.93;;
13660;SDS011;6903;49.480;11.102;2023-11-19T07:29:09;7.00;;;4.33;;
13660;SDS011;6903;49.480;11.102;2023-11-19T07:31:34;6.60;;;4.23;;
13660;SDS011;6903;49.480;11.102;2023-11-19T07:33:59;5.97;;;4.17;;
13660;SDS011;6903;49.480;11.102;2023-11-19T07:36:25;6.80;;;4.07;;
13660;SDS011;6903;49.480;11.102;2023-11-19T07:38:50;7.67;;;3.70;;
13660;SDS011;6903;49.480;11.102;2023-11-19T07:41:16;6.07;;;3.30;;
13660;SDS011;6903;49.480;11.102;2023-11-19T07:43:44;6.03;;;3.90;;
13660;SDS011;6903;49.480;11.102;2023-11-19T07:46:10;7.50;;;4.20;;
13660;SDS011;6903;49.480;11.102;2023-11-19T07:48:37;5.00;;;3.37;;
13660;SDS011;6903;49.480;11.102;2023-11-19T07:51:03;3.90;;;3.03;;
13660;SDS011;6903;49.480;11.102;2023-11-19T07:53:29;5.07;;;3.37;;
13660;SDS011;6903;49.480;11.102;2023-11-19T07:55:54;4.97;;;3.90;;
13660;SDS011;6903;49.480;11.102;2023-11-19T07:58:19;4.97;;;3.60;;
13660;SDS011;6903;49.480;11.102;2023-11-19T08:00:45;5.50;;;3.57;;
13660;SDS011;6903;49.480;11.102;2023-11-19T08:03:10;3.90;;;3.07;;
13660;SDS011;6903;49.480;11.102;2023-11-19T08:05:36;5.73;;;3.77;;
13660;SDS011;6903;49.480;11.102;2023-11-19T08:08:01;5.40;;;3.50;;
13660;SDS011;6903;49.480;11.102;2023-11-19T08:10:26;4.50;;;3.13;;
13660;SDS011;6903;49.480;11.102;2023-11-19T08:12:52;4.63;;;3.30;;
13660;SDS011;6903;49.480;11.102;2023-11-19T08:15:17;4.10;;;3.00;;
13660;SDS011;6903;49.480;11.102;2023-11-19T08:17:42;3.60;;;2.50;;
13660;SDS011;6903;49.480;11.102;2023-11-19T08:20:08;3.10;;;2.50;;
13660;SDS011;6903;49.480;11.102;2023-11-19T08:22:35;2.63;;;1.90;;
13660;SDS011;6903;49.480;11.102;2023-11-19T08:25:01;3.03;;;2.10;;
13660;SDS011;6903;49.480;11.102;2023-11-19T08:27:27;3.73;;;2.67;;
13660;SDS011;6903;49.480;11.102;2023-11-19T08:29:53;3.23;;;2.70;;
13660;SDS011;6903;49.480;11.102;2023-11-19T08:32:21;3.83;;;2.50;;
13660;SDS011;6903;49.480;11.102;2023-11-19T08:34:47;2.50;;;2.00;;
13660;SDS011;6903;49.480;11.102;2023-11-19T08:37:12;2.57;;;2.00;;
13660;SDS011;6903;49.480;11.102;2023-11-19T08:39:38;1.37;;;1.03;;
13660;SDS011;6903;49.480;11.102;2023-11-19T08:42:04;3.20;;;1.03;;
13660;SDS011;6903;49.480;11.102;2023-11-19T08:44:29;1.30;;;1.00;;
13660;SDS011;6903;49.480;11.102;2023-11-19T08:46:54;1.00;;;0.90;;
13660;SDS011;6903;49.480;11.102;2023-11-19T08:49:20;1.40;;;1.20;;
13660;SDS011;6903;49.480;11.102;2023-11-19T08:51:45;1.47;;;1.00;;
13660;SDS011;6903;49.480;11.102;2023-11-19T08:54:10;1.10;;;1.00;;
13660;SDS011;6903;49.480;11.102;2023-11-19T08:56:37;1.20;;;1.10;;
13660;SDS011;6903;49.480;11.102;2023-11-19T08:59:04;1.20;;;1.10;;
13660;SDS011;6903;49.480;11.102;2023-11-19T09:01:29;2.80;;;1.27;;
13660;SDS011;6903;49.480;11.102;2023-11-19T09:03:55;1.67;;;1.27;;
13660;SDS011;6903;49.480;11.102;2023-11-19T09:06:20;1.63;;;1.07;;
13660;SDS011;6903;49.480;11.102;2023-11-19T09:08:45;1.63;;;1.10;;
13660;SDS011;6903;49.480;11.102;2023-11-19T09:11:11;1.50;;;1.10;;
13660;SDS011;6903;49.480;11.102;2023-11-19T09:13:36;1.40;;;1.10;;
13660;SDS011;6903;49.480;11.102;2023-11-19T09:16:02;1.20;;;1.07;;
13660;SDS011;6903;49.480;11.102;2023-11-19T09:18:29;1.50;;;1.30;;
13660;SDS011;6903;49.480;11.102;2023-11-19T09:20:54;4.63;;;1.37;;
13660;SDS011;6903;49.480;11.102;2023-11-19T09:23:20;3.77;;;1.30;;
13660;SDS011;6903;49.480;11.102;2023-11-19T09:25:45;1.90;;;1.30;;
13660;SDS011;6903;49.480;11.102;2023-11-19T09:28:10;4.20;;;1.80;;
13660;SDS011;6903;49.480;11.102;2023-11-19T09:30:36;2.10;;;1.40;;
13660;SDS011;6903;49.480;11.102;2023-11-19T09:33:01;3.80;;;2.57;;
13660;SDS011;6903;49.480;11.102;2023-11-19T09:35:27;1.40;;;1.30;;
13660;SDS011;6903;49.480;11.102;2023-11-19T09:37:52;2.40;;;1.57;;
13660;SDS011;6903;49.480;11.102;2023-11-19T09:40:18;1.70;;;1.60;;
13660;SDS011;6903;49.480;11.102;2023-11-19T09:42:43;3.00;;;1.63;;
13660;SDS011;6903;49.480;11.102;2023-11-19T09:45:12;2.10;;;1.60;;
13660;SDS011;6903;49.480;11.102;2023-11-19T09:47:40;1.90;;;1.50;;
13660;SDS011;6903;49.480;11.102;2023-11-19T09:50:08;1.70;;;1.43;;
13660;SDS011;6903;49.480;11.102;2023-11-19T09:52:35;1.80;;;1.30;;
13660;SDS011;6903;49.480;11.102;2023-11-19T09:55:00;1.30;;;1.20;;
13660;SDS011;6903;49.480;11.102;2023-11-19T09:57:26;1.65;;;1.08;;
13660;SDS011;6903;49.480;11.102;2023-11-19T09:59:52;1.63;;;0.88;;
13660;SDS011;6903;49.480;11.102;2023-11-19T10:02:19;0.80;;;0.80;;
13660;SDS011;6903;49.480;11.102;2023-11-19T10:04:45;1.07;;;0.97;;
13660;SDS011;6903;49.480;11.102;2023-11-19T10:07:12;0.97;;;0.80;;
13660;SDS011;6903;49.480;11.102;2023-11-19T10:09:37;0.67;;;0.67;;
13660;SDS011;6903;49.480;11.102;2023-11-19T10:12:03;1.70;;;0.77;;
13660;SDS011;6903;49.480;11.102;2023-11-19T10:14:28;1.70;;;0.80;;
13660;SDS011;6903;49.480;11.102;2023-11-19T10:16:56;2.53;;;0.90;;
13660;SDS011;6903;49.480;11.102;2023-11-19T10:19:21;1.30;;;0.87;;
13660;SDS011;6903;49.480;11.102;2023-11-19T10:21:46;1.00;;;0.70;;
13660;SDS011;6903;49.480;11.102;2023-11-19T10:24:12;0.90;;;0.70;;
13660;SDS011;6903;49.480;11.102;2023-11-19T10:26:37;1.70;;;0.65;;
13660;SDS011;6903;49.480;11.102;2023-11-19T10:29:02;1.00;;;0.90;;
13660;SDS011;6903;49.480;11.102;2023-11-19T10:31:29;0.88;;;0.80;;
13660;SDS011;6903;49.480;11.102;2023-11-19T10:33:54;0.77;;;0.77;;
13660;SDS011;6903;49.480;11.102;2023-11-19T10:36:19;0.90;;;0.70;;
13660;SDS011;6903;49.480;11.102;2023-11-19T10:38:55;1.20;;;0.70;;
13660;SDS011;6903;49.480;11.102;2023-11-19T10:41:28;1.00;;;0.88;;
13660;SDS011;6903;49.480;11.102;2023-11-19T10:43:57;0.93;;;0.60;;
13660;SDS011;6903;49.480;11.102;2023-11-19T10:46:23;0.73;;;0.70;;
13660;SDS011;6903;49.480;11.102;2023-11-19T10:49:02;0.87;;;0.80;;
13660;SDS011;6903;49.480;11.102;2023-11-19T10:51:27;0.77;;;0.70;;
13660;SDS011;6903;49.480;11.102;2023-11-19T10:53:54;0.50;;;0.50;;
13660;SDS011;6903;49.480;11.102;2023-11-19T10:56:26;0.80;;;0.60;;
13660;SDS011;6903;49.480;11.102;2023-11-19T10:58:56;2.20;;;1.17;;
13660;SDS011;6903;49.480;11.102;2023-11-19T11:01:24;0.60;;;0.60;;
13660;SDS011;6903;49.480;11.102;2023-11-19T11:03:55;1.00;;;0.70;;
13660;SDS011;6903;49.480;11.102;2023-11-19T11:06:24;1.57;;;0.80;;
13660;SDS011;6903;49.480;11.102;2023-11-19T11:08:50;11.63;;;5.82;;
13660;SDS011;6903;49.480;11.102;2023-11-19T11:11:16;1.75;;;1.50;;
13660;SDS011;6903;49.480;11.102;2023-11-19T11:13:48;2.67;;;1.10;;
13660;SDS011;6903;49.480;11.102;2023-11-19T11:16:15;2.72;;;1.20;;
13660;SDS011;6903;49.480;11.102;2023-11-19T11:18:44;3.22;;;1.73;;
13660;SDS011;6903;49.480;11.102;2023-11-19T11:21:09;5.07;;;2.63;;
13660;SDS011;6903;49.480;11.102;2023-11-19T11:26:30;1.13;;;0.77;;
13660;SDS011;6903;49.480;11.102;2023-11-19T11:32:23;1.95;;;1.02;;
13660;SDS011;6903;49.480;11.102;2023-11-19T11:37:50;0.95;;;0.85;;
13660;SDS011;6903;49.480;11.102;2023-11-19T11:40:21;2.25;;;0.90;;
13660;SDS011;6903;49.480;11.102;2023-11-19T11:42:48;2.15;;;0.90;;
13660;SDS011;6903;49.480;11.102;2023-11-19T11:45:15;2.33;;;1.23;;
13660;SDS011;6903;49.480;11.102;2023-11-19T11:50:13;0.93;;;0.60;;
13660;SDS011;6903;49.480;11.102;2023-11-19T11:58:01;1.80;;;0.68;;
13660;SDS011;6903;49.480;11.102;2023-11-19T12:02:55;2.55;;;0.80;;
13660;SDS011;6903;49.480;11.102;2023-11-19T12:05:21;2.00;;;0.80;;
13660;SDS011;6903;49.480;11.102;2023-11-19T12:07:56;1.08;;;0.60;;
13660;SDS011;6903;49.480;11.102;2023-11-19T12:10:25;0.70;;;0.63;;
13660;SDS011;6903;49.480;11.102;2023-11-19T12:12:57;1.10;;;0.90;;
13660;SDS011;6903;49.480;11.102;2023-11-19T12:15:23;1.30;;;0.95;;
13660;SDS011;6903;49.480;11.102;2023-11-19T12:17:50;2.35;;;1.30;;
13660;SDS011;6903;49.480;11.102;2023-11-19T12:20:16;2.03;;;1.00;;
13660;SDS011;6903;49.480;11.102;2023-11-19T12:22:43;0.77;;;0.77;;
13660;SDS011;6903;49.480;11.102;2023-11-19T12:25:10;1.25;;;0.90;;
13660;SDS011;6903;49.480;11.102;2023-11-19T12:27:39;1.33;;;0.95;;
13660;SDS011;6903;49.480;11.102;2023-11-19T12:30:05;2.50;;;1.10;;
13660;SDS011;6903;49.480;11.102;2023-11-19T12:32:40;2.33;;;1.30;;
13660;SDS011;6903;49.480;11.102;2023-11-19T12:35:09;1.30;;;1.00;;
13660;SDS011;6903;49.480;11.102;2023-11-19T12:37:44;1.48;;;0.70;;
13660;SDS011;6903;49.480;11.102;2023-11-19T12:40:20;2.58;;;1.00;;
13660;SDS011;6903;49.480;11.102;2023-11-19T12:42:47;1.70;;;1.00;;
13660;SDS011;6903;49.480;11.102;2023-11-19T12:45:16;1.63;;;0.80;;
13660;SDS011;6903;49.480;11.102;2023-11-19T12:47:45;2.63;;;1.13;;
13660;SDS011;6903;49.480;11.102;2023-11-19T12:50:12;3.17;;;1.33;;
13660;SDS011;6903;49.480;11.102;2023-11-19T12:52:38;2.85;;;1.00;;
13660;SDS011;6903;49.480;11.102;2023-11-19T12:55:04;1.05;;;0.90;;
13660;SDS011;6903;49.480;11.102;2023-11-19T12:57:48;1.52;;;1.00;;
13660;SDS011;6903;49.480;11.102;2023-11-19T13:00:20;0.93;;;0.60;;
13660;SDS011;6903;49.480;11.102;2023-11-19T13:02:50;1.52;;;0.80;;
13660;SDS011;6903;49.480;11.102;2023-11-19T13:05:50;1.48;;;0.70;;
13660;SDS011;6903;49.480;11.102;2023-11-19T13:08:09;0.85;;;0.77;;
13660;SDS011;6903;49.480;11.102;2023-11-19T13:10:51;1.15;;;0.88;;
13660;SDS011;6903;49.480;11.102;2023-11-19T13:13:18;0.93;;;0.73;;
13660;SDS011;6903;49.480;11.102;2023-11-19T13:15:44;1.83;;;0.77;;
13660;SDS011;6903;49.480;11.102;2023-11-19T13:18:10;1.77;;;0.82;;
13660;SDS011;6903;49.480;11.102;2023-11-19T13:20:35;0.90;;;0.68;;
13660;SDS011;6903;49.480;11.102;2023-11-19T13:23:01;1.27;;;0.80;;
13660;SDS011;6903;49.480;11.102;2023-11-19T13:25:28;1.20;;;0.70;;
13660;SDS011;6903;49.480;11.102;2023-11-19T13:27:54;0.85;;;0.70;;
13660;SDS011;6903;49.480;11.102;2023-11-19T13:30:19;2.15;;;0.70;;
13660;SDS011;6903;49.480;11.102;2023-11-19T13:32:47;1.83;;;1.00;;
13660;SDS011;6903;49.480;11.102;2023-11-19T13:35:13;0.82;;;0.77;;
13660;SDS011;6903;49.480;11.102;2023-11-19T13:37:38;2.78;;;0.98;;
13660;SDS011;6903;49.480;11.102;2023-11-19T13:40:05;1.10;;;0.60;;
13660;SDS011;6903;49.480;11.102;2023-11-19T13:42:32;2.35;;;0.60;;
13660;SDS011;6903;49.480;11.102;2023-11-19T13:44:57;1.75;;;0.63;;
13660;SDS011;6903;49.480;11.102;2023-11-19T13:47:22;2.35;;;0.80;;
13660;SDS011;6903;49.480;11.102;2023-11-19T13:49:48;1.83;;;0.80;;
13660;SDS011;6903;49.480;11.102;2023-11-19T13:52:14;1.42;;;0.90;;
13660;SDS011;6903;49.480;11.102;2023-11-19T13:54:39;0.52;;;0.52;;
13660;SDS011;6903;49.480;11.102;2023-11-19T13:57:05;0.90;;;0.60;;
13660;SDS011;6903;49.480;11.102;2023-11-19T13:59:30;2.13;;;0.70;;
13660;SDS011;6903;49.480;11.102;2023-11-19T14:01:57;1.27;;;0.80;;
13660;SDS011;6903;49.480;11.102;2023-11-19T14:04:22;1.58;;;1.08;;
13660;SDS011;6903;49.480;11.102;2023-11-19T14:06:48;1.50;;;0.70;;
13660;SDS011;6903;49.480;11.102;2023-11-19T14:09:13;1.40;;;0.70;;
13660;SDS011;6903;49.480;11.102;2023-11-19T14:11:38;1.40;;;0.80;;
13660;SDS011;6903;49.480;11.102;2023-11-19T14:14:03;2.72;;;0.65;;
13660;SDS011;6903;49.480;11.102;2023-11-19T14:16:29;2.22;;;0.80;;
13660;SDS011;6903;49.480;11.102;2023-11-19T14:18:54;1.17;;;0.88;;
13660;SDS011;6903;49.480;11.102;2023-11-19T14:21:20;1.25;;;0.60;;
13660;SDS011;6903;49.480;11.102;2023-11-19T14:23:45;1.08;;;0.60;;
13660;SDS011;6903;49.480;11.102;2023-11-19T14:26:10;1.08;;;0.63;;
13660;SDS011;6903;49.480;11.102;2023-11-19T14:28:37;0.63;;;0.60;;
13660;SDS011;6903;49.480;11.102;2023-11-19T14:31:03;1.33;;;0.80;;
13660;SDS011;6903;49.480;11.102;2023-11-19T14:33:29;1.13;;;0.70;;
13660;SDS011;6903;49.480;11.102;2023-11-19T14:35:54;1.35;;;0.70;;
13660;SDS011;6903;49.480;11.102;2023-11-19T14:38:19;2.20;;;0.70;;
13660;SDS011;6903;49.480;11.102;2023-11-19T14:40:45;0.95;;;0.75;;
13660;SDS011;6903;49.480;11.102;2023-11-19T14:43:10;1.02;;;0.93;;
13660;SDS011;6903;49.480;11.102;2023-11-19T14:45:35;1.13;;;0.70;;
13660;SDS011;6903;49.480;11.102;2023-11-19T14:48:01;1.17;;;0.70;;
13660;SDS011;6903;49.480;11.102;2023-11-19T14:50:26;0.70;;;0.70;;
13660;SDS011;6903;49.480;11.102;2023-11-19T14:52:52;1.33;;;0.65;;
13660;SDS011;6903;49.480;11.102;2023-11-19T14:55:18;1.15;;;0.90;;
13660;SDS011;6903;49.480;11.102;2023-11-19T14:57:43;1.23;;;0.65;;
13660;SDS011;6903;49.480;11.102;2023-11-19T15:00:09;1.40;;;0.70;;
13660;SDS011;6903;49.480;11.102;2023-11-19T15:02:38;0.50;;;0.50;;